createdAt,value
2019-06-20T00:00:51.837Z,23.38
2019-06-20T00:01:53.564Z,24.07
2019-06-20T00:02:55.155Z,24.07
2019-06-20T00:03:56.825Z,24.55
2019-06-20T00:04:58.422Z,25.02
2019-06-20T00:06:00.114Z,24.47
2019-06-20T00:07:01.866Z,24.50
2019-06-20T00:08:03.572Z,23.38
2019-06-20T00:09:06.491Z,24.70
2019-06-20T00:10:08.466Z,23.87
2019-06-20T00:11:10.156Z,22.52
2019-06-20T00:12:11.955Z,22.27
2019-06-20T00:13:13.551Z,24.15
2019-06-20T00:14:15.150Z,22.62
2019-06-20T00:15:16.755Z,23.32
2019-06-20T00:16:18.466Z,24.05
2019-06-20T00:17:20.424Z,23.40
2019-06-20T00:18:23.367Z,22.67
2019-06-20T00:19:26.267Z,23.57
2019-06-20T00:20:27.962Z,23.18
2019-06-20T00:21:29.976Z,26.33
2019-06-20T00:22:31.586Z,24.98
2019-06-20T00:23:33.286Z,25.50
2019-06-20T00:24:35.009Z,24.85
2019-06-20T00:25:36.706Z,24.60
2019-06-20T00:26:38.434Z,24.40
2019-06-20T00:27:40.507Z,25.52
2019-06-20T00:28:42.230Z,25.25
2019-06-20T00:29:43.799Z,22.77
2019-06-20T00:30:45.394Z,24.40
2019-06-20T00:31:47.095Z,24.70
2019-06-20T00:32:48.814Z,24.32
2019-06-20T00:33:50.509Z,24.70
2019-06-20T00:34:52.103Z,25.62
2019-06-20T00:35:53.812Z,23.22
2019-06-20T00:36:55.385Z,24.35
2019-06-20T00:37:57.015Z,25.50
2019-06-20T00:38:58.730Z,24.35
2019-06-20T00:40:00.418Z,24.90
2019-06-20T00:41:02.125Z,26.10
2019-06-20T00:42:03.877Z,24.80
2019-06-20T00:43:17.683Z,25.30
2019-06-20T00:44:14.822Z,25.15
2019-06-20T00:45:17.318Z,25.12
2019-06-20T00:46:18.943Z,24.57
2019-06-20T00:47:20.635Z,24.05
2019-06-20T00:48:22.319Z,23.22
2019-06-20T00:49:23.903Z,24.52
2019-06-20T00:50:25.876Z,23.50
2019-06-20T00:51:27.578Z,23.45
2019-06-20T00:52:29.276Z,22.73
2019-06-20T00:53:30.994Z,22.13
2019-06-20T00:54:32.674Z,22.55
2019-06-20T00:55:34.406Z,23.05
2019-06-20T00:56:36.109Z,22.15
2019-06-20T00:57:37.800Z,22.62
2019-06-20T00:58:39.530Z,22.50
2019-06-20T00:59:41.120Z,22.52
2019-06-20T01:00:42.829Z,22.27
2019-06-20T01:01:44.907Z,21.75
2019-06-20T01:02:46.513Z,23.10
2019-06-20T01:03:48.271Z,23.05
2019-06-20T01:04:49.956Z,23.55
2019-06-20T01:05:51.585Z,23.75
2019-06-20T01:06:53.187Z,24.52
2019-06-20T01:07:54.951Z,23.98
2019-06-20T01:08:57.060Z,24.27
2019-06-20T01:09:58.748Z,23.95
2019-06-20T01:11:00.738Z,23.30
2019-06-20T01:12:02.482Z,22.05
2019-06-20T01:13:04.187Z,23.15
2019-06-20T01:14:05.887Z,23.80
2019-06-20T01:15:07.984Z,23.90
2019-06-20T01:16:09.681Z,24.15
2019-06-20T01:17:11.406Z,22.67
2019-06-20T01:18:13.086Z,24.07
2019-06-20T01:19:14.787Z,22.93
2019-06-20T01:20:16.585Z,23.00
2019-06-20T01:21:18.180Z,22.10
2019-06-20T01:22:19.805Z,22.15
2019-06-20T01:23:21.573Z,21.82
2019-06-20T01:24:23.221Z,22.52
2019-06-20T01:25:38.675Z,21.75
2019-06-20T01:26:40.374Z,22.27
2019-06-20T01:27:42.202Z,22.02
2019-06-20T01:28:43.964Z,22.45
2019-06-20T01:29:45.723Z,22.13
2019-06-20T01:30:47.426Z,22.73
2019-06-20T01:31:49.114Z,21.23
2019-06-20T01:32:50.721Z,20.62
2019-06-20T01:33:52.406Z,21.60
2019-06-20T01:34:54.097Z,20.35
2019-06-20T01:35:55.800Z,21.07
2019-06-20T01:36:57.390Z,18.75
2019-06-20T01:37:59.114Z,19.02
2019-06-20T01:39:00.677Z,18.15
2019-06-20T01:41:06.201Z,16.62
2019-06-20T01:42:08.225Z,17.42
2019-06-20T01:43:09.950Z,16.23
2019-06-20T01:44:11.533Z,16.23
2019-06-20T01:45:13.642Z,15.32
2019-06-20T01:46:15.330Z,14.45
2019-06-20T01:47:16.932Z,14.80
2019-06-20T01:48:18.557Z,16.48
2019-06-20T01:49:20.149Z,15.70
2019-06-20T01:50:21.843Z,14.98
2019-06-20T01:51:23.446Z,15.40
2019-06-20T01:52:25.148Z,14.68
2019-06-20T01:53:26.896Z,15.35
2019-06-20T01:54:30.601Z,12.82
2019-06-20T01:55:33.376Z,14.10
2019-06-20T01:56:34.917Z,14.50
2019-06-20T01:57:37.001Z,14.38
2019-06-20T01:58:38.770Z,14.75
2019-06-20T01:59:40.712Z,15.35
2019-06-20T02:00:45.936Z,15.88
2019-06-20T02:01:48.055Z,15.93
2019-06-20T02:02:49.765Z,17.98
2019-06-20T02:03:51.533Z,16.97
2019-06-20T02:04:53.111Z,17.37
2019-06-20T02:05:54.716Z,18.27
2019-06-20T02:06:56.415Z,21.70
2019-06-20T02:07:58.474Z,23.32
2019-06-20T02:09:00.108Z,22.50
2019-06-20T02:10:02.107Z,22.75
2019-06-20T02:11:03.814Z,20.80
2019-06-20T02:12:05.486Z,22.22
2019-06-20T02:13:07.225Z,21.77
2019-06-20T02:14:08.930Z,21.57
2019-06-20T02:15:10.601Z,22.40
2019-06-20T02:16:12.323Z,22.35
2019-06-20T02:17:14.341Z,23.62
2019-06-20T02:18:16.156Z,22.55
2019-06-20T02:19:18.238Z,21.97
2019-06-20T02:20:35.448Z,23.70
2019-06-20T02:21:37.047Z,24.70
2019-06-20T02:22:38.742Z,23.87
2019-06-20T02:23:40.446Z,23.67
2019-06-20T02:24:42.047Z,23.70
2019-06-20T02:25:43.635Z,24.70
2019-06-20T02:26:45.216Z,24.43
2019-06-20T02:27:46.926Z,25.10
2019-06-20T02:28:49.110Z,25.82
2019-06-20T02:29:50.737Z,24.52
2019-06-20T02:30:52.306Z,25.00
2019-06-20T02:31:53.943Z,25.50
2019-06-20T02:32:55.631Z,25.10
2019-06-20T02:33:57.378Z,26.85
2019-06-20T02:34:59.069Z,27.80
2019-06-20T02:36:00.773Z,26.57
2019-06-20T02:37:02.527Z,26.87
2019-06-20T02:38:04.211Z,27.42
2019-06-20T02:39:06.740Z,27.00
2019-06-20T02:40:08.553Z,27.13
2019-06-20T02:41:10.236Z,26.57
2019-06-20T02:42:11.946Z,27.13
2019-06-20T02:43:13.671Z,26.77
2019-06-20T02:44:28.987Z,24.85
2019-06-20T02:45:18.748Z,22.32
2019-06-20T02:46:20.428Z,21.25
2019-06-20T02:47:22.012Z,20.75
2019-06-20T02:48:23.707Z,21.55
2019-06-20T02:49:25.459Z,21.62
2019-06-20T02:50:27.336Z,21.57
2019-06-20T02:51:29.048Z,20.90
2019-06-20T02:52:30.741Z,20.70
2019-06-20T02:53:32.457Z,21.07
2019-06-20T02:54:34.158Z,21.33
2019-06-20T02:55:35.888Z,21.23
2019-06-20T02:56:38.085Z,20.72
2019-06-20T02:57:40.485Z,22.00
2019-06-20T02:58:42.199Z,21.60
2019-06-20T02:59:43.965Z,21.55
2019-06-20T03:00:55.762Z,22.32
2019-06-20T03:02:59.111Z,21.35
2019-06-20T03:04:00.813Z,21.42
2019-06-20T03:05:04.983Z,21.55
2019-06-20T03:06:06.666Z,21.27
2019-06-20T03:07:08.473Z,20.25
2019-06-20T03:08:10.277Z,21.48
2019-06-20T03:09:11.927Z,21.00
2019-06-20T03:10:13.855Z,19.95
2019-06-20T03:11:15.459Z,21.65
2019-06-20T03:12:17.136Z,22.80
2019-06-20T03:13:18.734Z,19.98
2019-06-20T03:14:20.298Z,21.75
2019-06-20T03:15:22.026Z,21.30
2019-06-20T03:16:23.605Z,21.65
2019-06-20T03:17:25.303Z,22.22
2019-06-20T03:18:27.255Z,21.35
2019-06-20T03:19:28.851Z,21.33
2019-06-20T03:20:30.946Z,21.80
2019-06-20T03:21:32.553Z,21.15
2019-06-20T03:22:34.247Z,21.82
2019-06-20T03:23:36.065Z,21.05
2019-06-20T03:24:37.664Z,22.15
2019-06-20T03:25:39.366Z,21.60
2019-06-20T03:26:41.065Z,22.67
2019-06-20T03:27:43.890Z,21.52
2019-06-20T03:28:45.560Z,21.48
2019-06-20T03:29:47.238Z,21.40
2019-06-20T03:30:49.002Z,21.77
2019-06-20T03:31:50.687Z,22.37
2019-06-20T03:32:52.369Z,21.33
2019-06-20T03:33:54.036Z,22.13
2019-06-20T03:34:55.661Z,22.45
2019-06-20T03:35:57.381Z,21.35
2019-06-20T03:36:59.063Z,21.42
2019-06-20T03:38:00.769Z,22.05
2019-06-20T03:39:04.562Z,21.00
2019-06-20T03:40:06.358Z,20.52
2019-06-20T03:41:07.972Z,20.08
2019-06-20T03:42:09.584Z,20.05
2019-06-20T03:43:11.185Z,21.25
2019-06-20T03:44:12.892Z,19.40
2019-06-20T03:45:14.678Z,20.30
2019-06-20T03:46:16.394Z,19.75
2019-06-20T03:47:18.717Z,20.70
2019-06-20T03:48:20.387Z,20.23
2019-06-20T03:49:22.088Z,19.00
2019-06-20T03:50:24.786Z,18.70
2019-06-20T03:51:26.699Z,20.48
2019-06-20T03:52:28.394Z,19.05
2019-06-20T03:53:30.474Z,17.37
2019-06-20T03:54:32.185Z,17.73
2019-06-20T03:55:34.062Z,17.95
2019-06-20T03:56:35.798Z,17.15
2019-06-20T03:57:37.510Z,18.23
2019-06-20T03:58:39.089Z,17.00
2019-06-20T03:59:40.794Z,16.32
2019-06-20T04:00:42.414Z,15.13
2019-06-20T04:01:44.023Z,15.68
2019-06-20T04:02:45.825Z,14.93
2019-06-20T04:03:47.398Z,15.28
2019-06-20T04:04:49.101Z,16.60
2019-06-20T04:05:51.133Z,15.78
2019-06-20T04:06:52.861Z,16.70
2019-06-20T04:07:55.155Z,15.43
2019-06-20T04:08:57.627Z,14.95
2019-06-20T04:09:59.325Z,15.58
2019-06-20T04:11:01.016Z,14.55
2019-06-20T04:12:02.633Z,15.05
2019-06-20T04:13:04.334Z,16.77
2019-06-20T04:14:06.052Z,17.70
2019-06-20T04:15:18.729Z,16.65
2019-06-20T04:16:11.644Z,15.95
2019-06-20T04:17:13.450Z,16.10
2019-06-20T04:18:15.035Z,16.48
2019-06-20T04:19:17.154Z,14.73
2019-06-20T04:20:18.866Z,14.25
2019-06-20T04:21:20.571Z,16.48
2019-06-20T04:22:22.318Z,15.15
2019-06-20T04:23:24.010Z,14.40
2019-06-20T04:24:27.922Z,15.68
2019-06-20T04:25:29.211Z,14.98
2019-06-20T04:26:30.880Z,14.40
2019-06-20T04:27:32.629Z,15.20
2019-06-20T04:28:34.847Z,14.50
2019-06-20T04:29:36.534Z,13.18
2019-06-20T04:30:38.365Z,14.03
2019-06-20T04:31:39.994Z,13.18
2019-06-20T04:32:41.743Z,12.88
2019-06-20T04:33:43.759Z,12.15
2019-06-20T04:34:45.451Z,13.18
2019-06-20T04:35:47.137Z,12.05
2019-06-20T04:36:48.699Z,12.50
2019-06-20T04:37:50.524Z,11.20
2019-06-20T04:38:52.273Z,12.10
2019-06-20T04:39:53.831Z,11.43
2019-06-20T04:40:55.547Z,11.00
2019-06-20T04:41:57.282Z,11.08
2019-06-20T04:42:58.878Z,11.55
2019-06-20T04:44:00.525Z,11.20
2019-06-20T04:45:05.178Z,12.90
2019-06-20T04:46:08.681Z,11.25
2019-06-20T04:47:11.500Z,11.05
2019-06-20T04:48:13.087Z,12.33
2019-06-20T04:49:14.702Z,12.37
2019-06-20T04:50:16.433Z,12.33
2019-06-20T04:51:18.119Z,12.58
2019-06-20T04:52:19.861Z,13.48
2019-06-20T04:53:21.591Z,13.05
2019-06-20T04:54:23.251Z,13.80
2019-06-20T04:55:24.882Z,13.68
2019-06-20T04:56:26.481Z,12.13
2019-06-20T04:57:28.247Z,13.05
2019-06-20T04:58:29.825Z,12.95
2019-06-20T04:59:31.509Z,14.43
2019-06-20T05:00:33.186Z,12.58
2019-06-20T05:01:34.878Z,13.40
2019-06-20T05:02:37.005Z,11.88
2019-06-20T05:03:38.695Z,13.18
2019-06-20T05:04:40.267Z,12.60
2019-06-20T05:05:41.984Z,13.05
2019-06-20T05:06:47.309Z,13.30
2019-06-20T05:07:49.088Z,13.88
2019-06-20T05:08:51.034Z,13.32
2019-06-20T05:09:52.766Z,14.05
2019-06-20T05:10:56.844Z,14.90
2019-06-20T05:11:58.463Z,15.03
2019-06-20T05:13:00.298Z,15.05
2019-06-20T05:14:02.006Z,14.93
2019-06-20T05:15:05.089Z,15.70
2019-06-20T05:16:06.699Z,15.95
2019-06-20T05:17:08.398Z,16.35
2019-06-20T05:18:10.129Z,15.83
2019-06-20T05:19:11.813Z,16.62
2019-06-20T05:20:13.750Z,15.83
2019-06-20T05:21:15.402Z,15.70
2019-06-20T05:22:17.014Z,16.85
2019-06-20T05:23:18.763Z,17.40
2019-06-20T05:24:20.487Z,16.95
2019-06-20T05:25:22.178Z,16.80
2019-06-20T05:26:23.866Z,17.15
2019-06-20T05:27:25.618Z,17.23
2019-06-20T05:28:27.304Z,17.48
2019-06-20T05:29:28.984Z,17.23
2019-06-20T05:30:30.650Z,16.62
2019-06-20T05:31:32.466Z,16.32
2019-06-20T05:32:34.082Z,16.85
2019-06-20T05:33:35.815Z,16.45
2019-06-20T05:34:37.403Z,15.80
2019-06-20T05:35:40.021Z,16.02
2019-06-20T05:36:41.636Z,16.65
2019-06-20T05:37:43.441Z,16.67
2019-06-20T05:38:45.187Z,17.67
2019-06-20T05:39:46.786Z,17.10
2019-06-20T05:40:48.732Z,17.40
2019-06-20T05:41:50.437Z,17.10
2019-06-20T05:42:52.284Z,16.55
2019-06-20T05:43:54.587Z,16.42
2019-06-20T05:44:56.308Z,18.20
2019-06-20T05:46:08.724Z,17.00
2019-06-20T05:47:12.494Z,17.35
2019-06-20T05:48:05.687Z,16.77
2019-06-20T05:49:07.304Z,16.57
2019-06-20T05:50:09.212Z,16.93
2019-06-20T05:51:10.923Z,15.93
2019-06-20T05:52:12.621Z,16.87
2019-06-20T05:53:14.322Z,17.12
2019-06-20T05:54:16.369Z,16.35
2019-06-20T05:55:18.079Z,15.90
2019-06-20T05:56:19.758Z,17.07
2019-06-20T05:57:22.373Z,16.75
2019-06-20T05:58:24.046Z,17.57
2019-06-20T05:59:25.799Z,16.35
2019-06-20T06:00:27.475Z,16.02
2019-06-20T06:01:29.376Z,15.15
2019-06-20T06:02:31.163Z,16.02
2019-06-20T06:03:33.596Z,16.50
2019-06-20T06:04:35.443Z,14.07
2019-06-20T06:05:37.271Z,15.50
2019-06-20T06:06:39.018Z,15.05
2019-06-20T06:07:40.642Z,13.90
2019-06-20T06:08:42.240Z,13.72
2019-06-20T06:09:45.560Z,13.20
2019-06-20T06:10:47.351Z,14.15
2019-06-20T06:11:49.377Z,14.70
2019-06-20T06:12:51.053Z,14.00
2019-06-20T06:13:53.359Z,13.20
2019-06-20T06:14:55.238Z,13.88
2019-06-20T06:15:56.951Z,13.98
2019-06-20T06:16:58.663Z,12.40
2019-06-20T06:18:00.257Z,13.28
2019-06-20T06:19:01.871Z,12.85
2019-06-20T06:20:05.911Z,13.58
2019-06-20T06:21:07.603Z,13.38
2019-06-20T06:22:11.427Z,13.25
2019-06-20T06:23:13.103Z,12.23
2019-06-20T06:24:14.805Z,11.55
2019-06-20T06:25:16.656Z,11.78
2019-06-20T06:26:18.300Z,12.15
2019-06-20T06:27:20.384Z,13.03
2019-06-20T06:28:22.094Z,11.95
2019-06-20T06:29:23.784Z,11.43
2019-06-20T06:30:27.329Z,11.93
2019-06-20T06:31:28.924Z,11.63
2019-06-20T06:32:40.167Z,10.70
2019-06-20T06:33:34.587Z,10.10
2019-06-20T06:34:36.279Z,10.28
2019-06-20T06:35:38.042Z,10.65
2019-06-20T06:36:39.779Z,10.48
2019-06-20T06:37:41.495Z,8.40
2019-06-20T06:38:44.954Z,7.58
2019-06-20T06:39:46.538Z,7.92
2019-06-20T06:40:48.154Z,16.30
2019-06-20T06:41:50.345Z,10.75
2019-06-20T06:42:52.426Z,9.33
2019-06-20T06:43:54.131Z,8.93
2019-06-20T06:44:55.854Z,7.65
2019-06-20T06:45:57.579Z,5.85
2019-06-20T06:46:59.946Z,6.67
2019-06-20T06:48:04.335Z,5.67
2019-06-20T06:49:06.018Z,6.58
2019-06-20T06:50:08.347Z,6.70
2019-06-20T06:51:10.042Z,6.05
2019-06-20T06:52:11.744Z,7.30
2019-06-20T06:53:13.877Z,6.55
2019-06-20T06:54:15.781Z,5.80
2019-06-20T06:55:17.965Z,6.00
2019-06-20T06:56:19.706Z,5.58
2019-06-20T06:57:21.414Z,5.50
2019-06-20T06:58:23.027Z,5.53
2019-06-20T06:59:25.160Z,5.42
2019-06-20T07:00:26.838Z,5.58
2019-06-20T07:01:29.143Z,5.83
2019-06-20T07:02:30.863Z,4.90
2019-06-20T07:03:32.534Z,6.00
2019-06-20T07:04:34.286Z,5.90
2019-06-20T07:05:36.340Z,5.33
2019-06-20T07:06:37.934Z,5.53
2019-06-20T07:07:39.629Z,5.35
2019-06-20T07:08:41.381Z,5.45
2019-06-20T07:09:43.094Z,5.35
2019-06-20T07:10:44.670Z,5.17
2019-06-20T07:11:46.285Z,5.50
2019-06-20T07:12:48.026Z,5.67
2019-06-20T07:13:49.684Z,6.05
2019-06-20T07:14:51.299Z,5.45
2019-06-20T07:15:52.891Z,6.05
2019-06-20T07:17:00.185Z,6.35
2019-06-20T07:18:18.173Z,5.92
2019-06-20T07:19:19.869Z,5.87
2019-06-20T07:20:21.608Z,5.83
2019-06-20T07:21:23.615Z,6.22
2019-06-20T07:22:25.207Z,6.20
2019-06-20T07:23:26.932Z,5.35
2019-06-20T07:24:28.638Z,5.58
2019-06-20T07:25:30.255Z,5.72
2019-06-20T07:26:33.756Z,6.20
2019-06-20T07:27:35.448Z,5.60
2019-06-20T07:28:37.146Z,5.20
2019-06-20T07:29:38.849Z,6.12
2019-06-20T07:30:40.617Z,5.75
2019-06-20T07:31:46.082Z,5.62
2019-06-20T07:32:48.320Z,5.58
2019-06-20T07:33:54.460Z,6.20
2019-06-20T07:34:58.561Z,5.72
2019-06-20T07:36:00.693Z,5.60
2019-06-20T07:37:02.770Z,6.60
2019-06-20T07:38:04.982Z,6.53
2019-06-20T07:39:07.880Z,6.28
2019-06-20T07:40:11.193Z,5.85
2019-06-20T07:41:14.862Z,5.42
2019-06-20T07:42:16.433Z,5.75
2019-06-20T07:43:18.496Z,5.75
2019-06-20T07:44:20.190Z,5.22
2019-06-20T07:45:27.148Z,5.15
2019-06-20T07:46:33.328Z,5.00
2019-06-20T07:47:35.487Z,5.05
2019-06-20T07:48:56.908Z,4.95
2019-06-20T07:49:59.751Z,4.78
2019-06-20T07:51:01.504Z,5.00
2019-06-20T07:52:03.118Z,5.15
2019-06-20T07:53:04.737Z,6.03
2019-06-20T07:54:07.689Z,5.47
2019-06-20T07:55:11.402Z,5.67
2019-06-20T07:56:13.130Z,5.67
2019-06-20T07:57:14.889Z,5.92
2019-06-20T07:58:16.951Z,5.70
2019-06-20T07:59:18.569Z,5.35
2019-06-20T08:00:20.462Z,5.70
2019-06-20T08:01:24.239Z,4.95
2019-06-20T08:02:26.470Z,4.83
2019-06-20T08:03:28.059Z,4.50
2019-06-20T08:04:29.672Z,4.65
2019-06-20T08:05:31.366Z,5.42
2019-06-20T08:06:32.986Z,4.65
2019-06-20T08:07:34.714Z,4.45
2019-06-20T08:08:36.472Z,5.00
2019-06-20T08:09:44.662Z,4.83
2019-06-20T08:10:43.422Z,4.60
2019-06-20T08:11:45.025Z,4.47
2019-06-20T08:12:48.382Z,4.47
2019-06-20T08:13:51.662Z,5.10
2019-06-20T08:14:55.227Z,4.90
2019-06-20T08:15:56.914Z,5.20
2019-06-20T08:16:58.501Z,5.37
2019-06-20T08:18:00.256Z,4.72
2019-06-20T08:19:01.853Z,5.10
2019-06-20T08:20:07.219Z,5.35
2019-06-20T08:21:08.859Z,4.67
2019-06-20T08:22:10.652Z,4.60
2019-06-20T08:23:12.314Z,4.70
2019-06-20T08:24:13.980Z,4.97
2019-06-20T08:25:16.682Z,4.95
2019-06-20T08:26:18.370Z,5.10
2019-06-20T08:27:21.880Z,4.72
2019-06-20T08:28:23.839Z,4.85
2019-06-20T08:29:25.868Z,5.30
2019-06-20T08:30:29.165Z,4.78
2019-06-20T08:31:30.855Z,5.25
2019-06-20T08:32:32.532Z,5.12
2019-06-20T08:33:34.305Z,4.75
2019-06-20T08:34:35.995Z,4.67
2019-06-20T08:35:37.724Z,5.60
2019-06-20T08:36:39.293Z,4.90
2019-06-20T08:37:41.005Z,5.62
2019-06-20T08:38:43.146Z,5.25
2019-06-20T08:39:45.197Z,5.22
2019-06-20T08:40:46.892Z,4.70
2019-06-20T08:41:48.624Z,5.35
2019-06-20T08:42:52.331Z,4.95
2019-06-20T08:43:57.083Z,5.12
2019-06-20T08:44:59.497Z,4.90
2019-06-20T08:46:01.739Z,4.65
2019-06-20T08:47:03.884Z,5.50
2019-06-20T08:48:07.297Z,4.85
2019-06-20T08:49:09.466Z,5.47
2019-06-20T08:50:11.349Z,5.60
2019-06-20T08:51:14.683Z,4.60
2019-06-20T08:52:16.429Z,4.70
2019-06-20T08:53:35.557Z,4.78
2019-06-20T08:54:39.145Z,5.97
2019-06-20T08:55:43.512Z,14.13
2019-06-20T08:56:45.466Z,9.90
2019-06-20T08:57:47.150Z,5.15
2019-06-20T08:58:48.758Z,5.15
2019-06-20T08:59:50.542Z,4.37
2019-06-20T09:00:52.287Z,4.83
2019-06-20T09:01:56.484Z,4.35
2019-06-20T09:02:58.620Z,4.67
2019-06-20T09:05:05.591Z,4.92
2019-06-20T09:06:07.184Z,4.92
2019-06-20T09:07:08.885Z,5.03
2019-06-20T09:08:12.128Z,4.90
2019-06-20T09:09:14.204Z,4.30
2019-06-20T09:10:18.982Z,4.37
2019-06-20T09:11:20.706Z,4.22
2019-06-20T09:12:22.325Z,4.65
2019-06-20T09:13:24.028Z,4.12
2019-06-20T09:14:26.052Z,4.30
2019-06-20T09:15:29.140Z,4.22
2019-06-20T09:16:30.802Z,4.60
2019-06-20T09:17:32.777Z,4.47
2019-06-20T09:18:34.501Z,4.50
2019-06-20T09:19:36.206Z,4.60
2019-06-20T09:20:38.335Z,4.70
2019-06-20T09:21:40.029Z,4.87
2019-06-20T09:22:41.725Z,4.83
2019-06-20T09:23:43.507Z,5.08
2019-06-20T09:24:45.221Z,4.83
2019-06-20T09:25:47.554Z,5.25
2019-06-20T09:26:49.133Z,5.33
2019-06-20T09:27:52.715Z,5.17
2019-06-20T09:28:55.562Z,5.08
2019-06-20T09:29:58.517Z,5.17
2019-06-20T09:31:00.353Z,5.10
2019-06-20T09:32:02.359Z,5.40
2019-06-20T09:33:04.298Z,5.03
2019-06-20T09:34:06.080Z,5.30
2019-06-20T09:35:08.569Z,5.72
2019-06-20T09:36:12.322Z,5.30
2019-06-20T09:37:14.095Z,5.05
2019-06-20T09:38:15.762Z,5.30
2019-06-20T09:39:17.340Z,5.60
2019-06-20T09:40:22.966Z,5.25
2019-06-20T09:41:24.729Z,5.35
2019-06-20T09:42:26.331Z,5.53
2019-06-20T09:43:28.163Z,5.45
2019-06-20T09:44:30.141Z,5.05
2019-06-20T09:45:33.014Z,5.62
2019-06-20T09:46:34.670Z,5.60
2019-06-20T09:47:36.350Z,6.22
2019-06-20T09:48:38.207Z,6.15
2019-06-20T09:49:39.862Z,5.90
2019-06-20T09:50:41.726Z,5.50
2019-06-20T09:51:43.472Z,5.67
2019-06-20T09:52:49.750Z,5.83
2019-06-20T09:53:51.880Z,6.15
2019-06-20T09:54:53.936Z,5.55
2019-06-20T09:55:55.780Z,5.95
2019-06-20T09:56:58.362Z,5.92
2019-06-20T09:58:00.306Z,8.35
2019-06-20T09:59:03.244Z,16.37
2019-06-20T10:00:16.637Z,7.20
2019-06-20T10:01:18.367Z,8.08
2019-06-20T10:02:20.410Z,7.92
2019-06-20T10:03:22.124Z,5.97
2019-06-20T10:04:23.829Z,5.42
2019-06-20T10:05:25.639Z,5.42
2019-06-20T10:06:27.355Z,5.72
2019-06-20T10:07:29.271Z,18.02
2019-06-20T10:08:30.985Z,6.20
2019-06-20T10:09:33.440Z,5.25
2019-06-20T10:10:36.362Z,5.97
2019-06-20T10:11:38.126Z,6.05
2019-06-20T10:12:40.129Z,5.80
2019-06-20T10:13:41.713Z,6.20
2019-06-20T10:14:43.332Z,5.95
2019-06-20T10:15:46.294Z,6.05
2019-06-20T10:16:50.981Z,5.80
2019-06-20T10:17:51.881Z,6.08
2019-06-20T10:18:54.349Z,5.75
2019-06-20T10:19:56.344Z,5.70
2019-06-20T10:20:59.243Z,5.70
2019-06-20T10:22:01.391Z,5.72
2019-06-20T10:23:03.095Z,6.40
2019-06-20T10:24:04.695Z,6.40
2019-06-20T10:25:06.320Z,5.55
2019-06-20T10:26:08.062Z,5.80
2019-06-20T10:27:09.715Z,5.75
2019-06-20T10:28:11.327Z,5.97
2019-06-20T10:29:13.010Z,5.87
2019-06-20T10:30:16.836Z,6.08
2019-06-20T10:31:18.537Z,6.62
2019-06-20T10:32:20.293Z,6.03
2019-06-20T10:33:22.008Z,6.15
2019-06-20T10:34:23.832Z,6.22
2019-06-20T10:35:25.952Z,6.25
2019-06-20T10:36:27.701Z,7.85
2019-06-20T10:37:29.429Z,6.67
2019-06-20T10:38:31.152Z,6.33
2019-06-20T10:39:33.536Z,6.12
2019-06-20T10:40:35.344Z,6.70
2019-06-20T10:41:37.489Z,6.67
2019-06-20T10:42:39.092Z,6.12
2019-06-20T10:43:40.874Z,5.85
2019-06-20T10:44:43.020Z,6.72
2019-06-20T10:45:47.303Z,6.45
2019-06-20T10:46:49.255Z,6.53
2019-06-20T10:47:52.873Z,5.95
2019-06-20T10:48:55.307Z,6.75
2019-06-20T10:49:57.050Z,6.92
2019-06-20T10:51:17.234Z,7.03
2019-06-20T10:52:18.970Z,6.33
2019-06-20T10:53:20.668Z,6.87
2019-06-20T10:54:22.615Z,7.15
2019-06-20T10:55:25.591Z,7.05
2019-06-20T10:56:27.732Z,6.85
2019-06-20T10:57:29.459Z,6.97
2019-06-20T10:58:31.179Z,6.90
2019-06-20T10:59:32.840Z,6.78
2019-06-20T11:00:35.610Z,6.17
2019-06-20T11:01:37.195Z,6.50
2019-06-20T11:02:38.906Z,6.87
2019-06-20T11:03:41.865Z,6.75
2019-06-20T11:04:44.018Z,6.67
2019-06-20T11:05:48.129Z,6.58
2019-06-20T11:06:50.180Z,6.92
2019-06-20T11:07:53.153Z,6.78
2019-06-20T11:08:54.768Z,6.78
2019-06-20T11:09:56.486Z,6.47
2019-06-20T11:10:58.194Z,6.80
2019-06-20T11:11:59.782Z,7.50
2019-06-20T11:13:01.461Z,6.62
2019-06-20T11:14:04.066Z,6.92
2019-06-20T11:15:07.114Z,7.30
2019-06-20T11:16:08.710Z,7.12
2019-06-20T11:17:10.433Z,6.92
2019-06-20T11:18:12.134Z,7.00
2019-06-20T11:19:13.816Z,7.55
2019-06-20T11:20:15.712Z,6.78
2019-06-20T11:21:17.407Z,6.85
2019-06-20T11:22:19.204Z,7.03
2019-06-20T11:23:21.273Z,7.40
2019-06-20T11:24:22.989Z,6.60
2019-06-20T11:25:26.419Z,6.58
2019-06-20T11:26:28.471Z,6.67
2019-06-20T11:27:32.967Z,7.53
2019-06-20T11:28:34.663Z,7.17
2019-06-20T11:29:37.954Z,6.85
2019-06-20T11:30:53.259Z,7.67
2019-06-20T11:31:46.388Z,7.50
2019-06-20T11:32:48.781Z,8.05
2019-06-20T11:33:50.614Z,7.72
2019-06-20T11:34:52.414Z,7.00
2019-06-20T11:35:54.408Z,6.67
2019-06-20T11:36:56.097Z,7.70
2019-06-20T11:37:57.797Z,6.62
2019-06-20T11:38:59.443Z,7.37
2019-06-20T11:40:01.159Z,6.75
2019-06-20T11:41:06.077Z,7.30
2019-06-20T11:42:07.787Z,7.37
2019-06-20T11:43:09.511Z,7.17
2019-06-20T11:44:11.330Z,6.78
2019-06-20T11:45:13.738Z,7.17
2019-06-20T11:46:15.380Z,7.12
2019-06-20T11:47:17.073Z,7.20
2019-06-20T11:48:18.669Z,6.95
2019-06-20T11:49:20.402Z,7.55
2019-06-20T11:50:22.119Z,7.40
2019-06-20T11:51:23.854Z,6.80
2019-06-20T11:52:25.538Z,7.30
2019-06-20T11:53:27.841Z,7.05
2019-06-20T11:54:31.871Z,7.45
2019-06-20T11:55:34.502Z,6.58
2019-06-20T11:56:36.711Z,7.40
2019-06-20T11:57:38.433Z,7.83
2019-06-20T11:58:40.356Z,7.53
2019-06-20T11:59:42.934Z,8.33
2019-06-20T12:00:58.613Z,7.30
2019-06-20T12:01:49.098Z,6.47
2019-06-20T12:02:50.805Z,7.65
2019-06-20T12:03:53.880Z,7.20
2019-06-20T12:04:55.635Z,7.10
2019-06-20T12:05:59.504Z,7.37
2019-06-20T12:07:03.356Z,7.40
2019-06-20T12:08:05.103Z,8.68
2019-06-20T12:09:06.784Z,8.28
2019-06-20T12:10:09.246Z,8.00
2019-06-20T12:11:11.931Z,8.15
2019-06-20T12:12:13.615Z,7.55
2019-06-20T12:13:15.362Z,8.43
2019-06-20T12:14:17.133Z,7.85
2019-06-20T12:15:19.170Z,8.53
2019-06-20T12:16:20.916Z,8.68
2019-06-20T12:17:23.673Z,8.48
2019-06-20T12:18:25.763Z,8.68
2019-06-20T12:19:27.463Z,8.75
2019-06-20T12:20:29.114Z,8.03
2019-06-20T12:21:30.714Z,8.28
2019-06-20T12:22:33.553Z,8.25
2019-06-20T12:23:35.150Z,8.10
2019-06-20T12:24:38.174Z,8.15
2019-06-20T12:25:44.063Z,7.95
2019-06-20T12:26:46.883Z,7.60
2019-06-20T12:27:49.945Z,8.13
2019-06-20T12:28:51.710Z,8.45
2019-06-20T12:29:53.675Z,7.95
2019-06-20T12:30:55.455Z,8.70
2019-06-20T12:31:57.228Z,8.38
2019-06-20T12:32:58.937Z,7.83
2019-06-20T12:34:00.708Z,8.33
2019-06-20T12:35:04.229Z,7.85
2019-06-20T12:36:06.111Z,7.87
2019-06-20T12:37:09.234Z,8.43
2019-06-20T12:38:15.230Z,8.73
2019-06-20T12:40:42.594Z,8.03
2019-06-20T12:41:48.369Z,8.23
2019-06-20T12:42:50.084Z,7.70
2019-06-20T12:43:52.156Z,7.78
2019-06-20T12:44:54.162Z,7.60
2019-06-20T12:45:55.858Z,7.58
2019-06-20T12:47:03.292Z,8.33
2019-06-20T12:48:07.473Z,8.35
2019-06-20T12:49:09.455Z,7.80
2019-06-20T12:50:11.270Z,7.15
2019-06-20T12:51:12.962Z,7.55
2019-06-20T12:52:14.715Z,8.45
2019-06-20T12:53:16.302Z,8.03
2019-06-20T12:54:17.897Z,8.50
2019-06-20T12:55:19.577Z,8.75
2019-06-20T12:56:21.284Z,7.65
2019-06-20T12:57:23.413Z,8.70
2019-06-20T12:58:26.123Z,7.70
2019-06-20T12:59:27.699Z,8.53
2019-06-20T13:00:29.504Z,7.95
2019-06-20T13:01:36.826Z,7.58
2019-06-20T13:02:34.724Z,7.83
2019-06-20T13:03:38.534Z,8.40
2019-06-20T13:04:41.588Z,7.83
2019-06-20T13:05:44.834Z,7.47
2019-06-20T13:06:46.961Z,7.97
2019-06-20T13:07:50.413Z,7.10
2019-06-20T13:08:52.546Z,9.05
2019-06-20T13:09:54.254Z,7.60
2019-06-20T13:10:55.858Z,8.43
2019-06-20T13:11:57.558Z,7.58
2019-06-20T13:12:59.295Z,7.92
2019-06-20T13:14:01.086Z,8.80
2019-06-20T13:15:04.194Z,8.18
2019-06-20T13:16:07.231Z,8.83
2019-06-20T13:17:08.931Z,8.15
2019-06-20T13:18:10.562Z,8.50
2019-06-20T13:19:12.238Z,9.03
2019-06-20T13:20:14.946Z,8.60
2019-06-20T13:21:18.956Z,8.25
2019-06-20T13:22:20.469Z,8.93
2019-06-20T13:23:23.372Z,7.60
2019-06-20T13:24:25.153Z,7.80
2019-06-20T13:25:30.510Z,7.50
2019-06-20T13:26:32.293Z,7.80
2019-06-20T13:27:35.037Z,7.53
2019-06-20T13:28:54.050Z,7.83
2019-06-20T13:29:40.804Z,7.87
2019-06-20T13:30:46.884Z,7.55
2019-06-20T13:32:00.529Z,8.05
2019-06-20T13:32:49.676Z,8.15
2019-06-20T13:33:51.392Z,8.05
2019-06-20T13:34:53.016Z,8.03
2019-06-20T13:35:54.721Z,7.65
2019-06-20T13:36:56.511Z,7.35
2019-06-20T13:37:58.202Z,8.45
2019-06-20T13:38:59.945Z,7.75
2019-06-20T13:40:02.485Z,7.92